sensor_id;sensor_type;location;lat;lon;timestamp;P1;P2;P0
66149;PMS5003;52952;50.904;20.648;2024-01-25T00:00:11;3;3;2
66149;PMS5003;52952;50.904;20.648;2024-01-25T00:10:18;3;3;2
66149;PMS5003;52952;50.904;20.648;2024-01-25T00:20:18;3;3;2
66149;PMS5003;52952;50.904;20.648;2024-01-25T00:30:05;3;3;2
66149;PMS5003;52952;50.904;20.648;2024-01-25T00:40:14;6;3;2
66149;PMS5003;52952;50.904;20.648;2024-01-25T00:50:02;6;3;2
66149;PMS5003;52952;50.904;20.648;2024-01-25T01:00:12;6;3;2
66149;PMS5003;52952;50.904;20.648;2024-01-25T01:10:19;3;3;2
66149;PMS5003;52952;50.904;20.648;2024-01-25T01:20:18;3;3;2
66149;PMS5003;52952;50.904;20.648;2024-01-25T01:30:02;3;3;2
66149;PMS5003;52952;50.904;20.648;2024-01-25T01:40:13;2;2;1
66149;PMS5003;52952;50.904;20.648;2024-01-25T01:50:19;2;2;1
66149;PMS5003;52952;50.904;20.648;2024-01-25T02:00:26;2;2;1
66149;PMS5003;52952;50.904;20.648;2024-01-25T02:10:16;3;3;1
66149;PMS5003;52952;50.904;20.648;2024-01-25T02:20:08;3;3;1
66149;PMS5003;52952;50.904;20.648;2024-01-25T02:30:02;3;3;1
66149;PMS5003;52952;50.904;20.648;2024-01-25T02:40:05;3;3;2
66149;PMS5003;52952;50.904;20.648;2024-01-25T02:50:07;3;3;2
66149;PMS5003;52952;50.904;20.648;2024-01-25T03:00:12;3;3;2
66149;PMS5003;52952;50.904;20.648;2024-01-25T03:10:04;2;2;2
66149;PMS5003;52952;50.904;20.648;2024-01-25T03:20:04;2;2;2
66149;PMS5003;52952;50.904;20.648;2024-01-25T03:30:18;2;2;2
66149;PMS5003;52952;50.904;20.648;2024-01-25T03:40:11;4;3;2
66149;PMS5003;52952;50.904;20.648;2024-01-25T03:50:09;4;3;2
66149;PMS5003;52952;50.904;20.648;2024-01-25T04:00:02;4;3;2
66149;PMS5003;52952;50.904;20.648;2024-01-25T04:10:18;3;3;1
66149;PMS5003;52952;50.904;20.648;2024-01-25T04:20:08;3;3;1
66149;PMS5003;52952;50.904;20.648;2024-01-25T04:30:07;3;3;1
66149;PMS5003;52952;50.904;20.648;2024-01-25T04:40:16;3;2;1
66149;PMS5003;52952;50.904;20.648;2024-01-25T04:50:02;3;2;1
66149;PMS5003;52952;50.904;20.648;2024-01-25T05:00:05;3;2;1
66149;PMS5003;52952;50.904;20.648;2024-01-25T05:10:05;5;5;3
66149;PMS5003;52952;50.904;20.648;2024-01-25T05:20:08;5;5;3
66149;PMS5003;52952;50.904;20.648;2024-01-25T05:30:11;5;5;3
66149;PMS5003;52952;50.904;20.648;2024-01-25T05:40:13;5;5;2
66149;PMS5003;52952;50.904;20.648;2024-01-25T05:50:14;5;5;2
66149;PMS5003;52952;50.904;20.648;2024-01-25T06:00:21;5;5;2
66149;PMS5003;52952;50.904;20.648;2024-01-25T06:10:17;5;4;2
66149;PMS5003;52952;50.904;20.648;2024-01-25T06:20:19;5;4;2
66149;PMS5003;52952;50.904;20.648;2024-01-25T06:30:20;5;4;2
66149;PMS5003;52952;50.904;20.648;2024-01-25T06:40:08;14;13;6
66149;PMS5003;52952;50.904;20.648;2024-01-25T06:50:12;14;13;6
66149;PMS5003;52952;50.904;20.648;2024-01-25T07:00:11;14;13;6
66149;PMS5003;52952;50.904;20.648;2024-01-25T07:10:15;6;4;2
66149;PMS5003;52952;50.904;20.648;2024-01-25T07:20:11;6;4;2
66149;PMS5003;52952;50.904;20.648;2024-01-25T07:30:02;6;4;2
66149;PMS5003;52952;50.904;20.648;2024-01-25T07:40:02;7;5;4
66149;PMS5003;52952;50.904;20.648;2024-01-25T07:50:11;7;5;4
66149;PMS5003;52952;50.904;20.648;2024-01-25T08:00:09;7;5;4
66149;PMS5003;52952;50.904;20.648;2024-01-25T08:10:15;4;4;3
66149;PMS5003;52952;50.904;20.648;2024-01-25T08:20:20;4;4;3
66149;PMS5003;52952;50.904;20.648;2024-01-25T08:30:02;4;4;3
66149;PMS5003;52952;50.904;20.648;2024-01-25T08:40:07;5;4;2
66149;PMS5003;52952;50.904;20.648;2024-01-25T08:50:16;5;4;2
66149;PMS5003;52952;50.904;20.648;2024-01-25T09:00:16;5;4;2
66149;PMS5003;52952;50.904;20.648;2024-01-25T09:10:05;9;7;5
66149;PMS5003;52952;50.904;20.648;2024-01-25T09:20:16;9;7;5
66149;PMS5003;52952;50.904;20.648;2024-01-25T09:30:16;9;7;5
66149;PMS5003;52952;50.904;20.648;2024-01-25T09:40:15;6;6;5
66149;PMS5003;52952;50.904;20.648;2024-01-25T09:50:02;6;6;5
66149;PMS5003;52952;50.904;20.648;2024-01-25T10:00:23;6;6;5
66149;PMS5003;52952;50.904;20.648;2024-01-25T10:10:15;8;8;5
66149;PMS5003;52952;50.904;20.648;2024-01-25T10:20:13;8;8;5
66149;PMS5003;52952;50.904;20.648;2024-01-25T10:30:17;8;8;5
66149;PMS5003;52952;50.904;20.648;2024-01-25T10:40:13;7;7;5
66149;PMS5003;52952;50.904;20.648;2024-01-25T10:50:04;7;7;5
66149;PMS5003;52952;50.904;20.648;2024-01-25T11:00:13;7;7;5
66149;PMS5003;52952;50.904;20.648;2024-01-25T11:10:21;7;7;6
66149;PMS5003;52952;50.904;20.648;2024-01-25T11:20:07;7;7;6
66149;PMS5003;52952;50.904;20.648;2024-01-25T11:30:02;7;7;6
66149;PMS5003;52952;50.904;20.648;2024-01-25T11:40:09;9;9;6
66149;PMS5003;52952;50.904;20.648;2024-01-25T11:50:01;9;9;6
66149;PMS5003;52952;50.904;20.648;2024-01-25T12:00:20;9;9;6
66149;PMS5003;52952;50.904;20.648;2024-01-25T12:10:18;10;9;6
66149;PMS5003;52952;50.904;20.648;2024-01-25T12:20:27;10;9;6
66149;PMS5003;52952;50.904;20.648;2024-01-25T12:30:09;10;9;6
66149;PMS5003;52952;50.904;20.648;2024-01-25T12:40:13;7;7;6
66149;PMS5003;52952;50.904;20.648;2024-01-25T12:50:15;7;7;6
66149;PMS5003;52952;50.904;20.648;2024-01-25T13:00:09;7;7;6
66149;PMS5003;52952;50.904;20.648;2024-01-25T13:10:19;9;8;6
66149;PMS5003;52952;50.904;20.648;2024-01-25T13:20:02;9;8;6
66149;PMS5003;52952;50.904;20.648;2024-01-25T13:30:06;9;8;6
66149;PMS5003;52952;50.904;20.648;2024-01-25T13:40:15;8;7;5
66149;PMS5003;52952;50.904;20.648;2024-01-25T13:50:02;8;7;5
66149;PMS5003;52952;50.904;20.648;2024-01-25T14:10:10;8;8;6
66149;PMS5003;52952;50.904;20.648;2024-01-25T14:20:09;8;8;6
66149;PMS5003;52952;50.904;20.648;2024-01-25T14:30:07;8;8;6
66149;PMS5003;52952;50.904;20.648;2024-01-25T14:40:15;5;5;3
66149;PMS5003;52952;50.904;20.648;2024-01-25T14:50:07;5;5;3
66149;PMS5003;52952;50.904;20.648;2024-01-25T15:00:22;5;5;3
66149;PMS5003;52952;50.904;20.648;2024-01-25T15:10:16;7;7;5
66149;PMS5003;52952;50.904;20.648;2024-01-25T15:20:02;7;7;5
66149;PMS5003;52952;50.904;20.648;2024-01-25T15:30:06;7;7;5
66149;PMS5003;52952;50.904;20.648;2024-01-25T15:40:11;6;6;3
66149;PMS5003;52952;50.904;20.648;2024-01-25T15:50:02;6;6;3
66149;PMS5003;52952;50.904;20.648;2024-01-25T16:00:24;6;6;3
66149;PMS5003;52952;50.904;20.648;2024-01-25T16:10:10;7;6;4
66149;PMS5003;52952;50.904;20.648;2024-01-25T16:20:11;7;6;4
66149;PMS5003;52952;50.904;20.648;2024-01-25T16:30:03;7;6;4
66149;PMS5003;52952;50.904;20.648;2024-01-25T16:50:11;6;6;5
66149;PMS5003;52952;50.904;20.648;2024-01-25T17:00:25;6;6;5
66149;PMS5003;52952;50.904;20.648;2024-01-25T17:20:07;9;7;5
66149;PMS5003;52952;50.904;20.648;2024-01-25T17:30:14;9;7;5
66149;PMS5003;52952;50.904;20.648;2024-01-25T17:40:02;9;7;5
66149;PMS5003;52952;50.904;20.648;2024-01-25T17:50:15;9;9;7
66149;PMS5003;52952;50.904;20.648;2024-01-25T18:00:02;9;9;7
66149;PMS5003;52952;50.904;20.648;2024-01-25T18:10:12;9;9;7
66149;PMS5003;52952;50.904;20.648;2024-01-25T18:20:18;10;8;6
66149;PMS5003;52952;50.904;20.648;2024-01-25T18:30:25;10;8;6
66149;PMS5003;52952;50.904;20.648;2024-01-25T18:40:15;10;8;6
66149;PMS5003;52952;50.904;20.648;2024-01-25T18:50:09;1;1;0
66149;PMS5003;52952;50.904;20.648;2024-01-25T19:00:09;1;1;0
66149;PMS5003;52952;50.904;20.648;2024-01-25T19:10:08;1;1;0
66149;PMS5003;52952;50.904;20.648;2024-01-25T19:20:14;3;3;2
66149;PMS5003;52952;50.904;20.648;2024-01-25T19:30:30;3;3;2
66149;PMS5003;52952;50.904;20.648;2024-01-25T19:40:02;3;3;2
66149;PMS5003;52952;50.904;20.648;2024-01-25T19:50:14;3;2;2
66149;PMS5003;52952;50.904;20.648;2024-01-25T20:00:12;3;2;2
66149;PMS5003;52952;50.904;20.648;2024-01-25T20:10:13;3;2;2
66149;PMS5003;52952;50.904;20.648;2024-01-25T20:20:26;6;6;5
66149;PMS5003;52952;50.904;20.648;2024-01-25T20:30:28;6;6;5
66149;PMS5003;52952;50.904;20.648;2024-01-25T20:40:08;6;6;5
66149;PMS5003;52952;50.904;20.648;2024-01-25T20:50:18;6;6;5
66149;PMS5003;52952;50.904;20.648;2024-01-25T21:00:16;6;6;5
66149;PMS5003;52952;50.904;20.648;2024-01-25T21:10:08;6;6;5
66149;PMS5003;52952;50.904;20.648;2024-01-25T21:20:05;6;6;5
66149;PMS5003;52952;50.904;20.648;2024-01-25T21:30:20;6;6;5
66149;PMS5003;52952;50.904;20.648;2024-01-25T21:40:02;6;6;5
66149;PMS5003;52952;50.904;20.648;2024-01-25T21:50:11;8;8;6
66149;PMS5003;52952;50.904;20.648;2024-01-25T22:00:13;8;8;6
66149;PMS5003;52952;50.904;20.648;2024-01-25T22:10:14;8;8;6
66149;PMS5003;52952;50.904;20.648;2024-01-25T22:20:05;13;11;8
66149;PMS5003;52952;50.904;20.648;2024-01-25T22:30:03;13;11;8
66149;PMS5003;52952;50.904;20.648;2024-01-25T22:40:08;13;11;8
66149;PMS5003;52952;50.904;20.648;2024-01-25T22:50:27;7;7;5
66149;PMS5003;52952;50.904;20.648;2024-01-25T23:00:31;7;7;5
66149;PMS5003;52952;50.904;20.648;2024-01-25T23:10:04;7;4;4
66149;PMS5003;52952;50.904;20.648;2024-01-25T23:20:10;7;4;4
66149;PMS5003;52952;50.904;20.648;2024-01-25T23:40:11;5;5;4
66149;PMS5003;52952;50.904;20.648;2024-01-25T23:50:11;5;5;4
